South Arkansas Regional At Goodwin Field
KELD : now visible

Airfield :











YOU CAN JOIN US ON...

 
LOGIN :

Register | Disclaimer

   EN    FR    IT 

 









Legend :    VFR   Marginal VFR   IFR   Intensive IFR   Very Intensive IFR
Visi :
Ceiling :
>= 8 km
>= 3000ft
5 to 8 km
1000 to 3000 ft
1500m to 5 km
500 to 1000 ft
800 to 1500m
200 to 500 ft
< 800m
< 200 ft
Symbols :   Thunderstorms  Fog  Heavy snow  Heavy precipitations  Wind > 20 kt







- Airport Elevation : 277 ft
- IATA code : ELD


KELD - South Arkansas Regional At Goodwin Field

CURRENT METAR :
  • 191153Z AUTO 29004KT 10SM CLR 08/08 A2984 RMK AO2 SLP103 70113 T00830083 10094 20078 53010

EXPIRED METARs :
  • 191053Z AUTO 28005KT 10SM BKN046 BKN070 09/09 A2982 RMK AO2 SLP096 T00890089
  • 190953Z AUTO 00000KT 10SM SCT047 SCT055 08/08 A2981 RMK AO2 SLP093 T00830083

TAF KELD
Valid from the 19 at 12:00 until the 20 at 12:00 UTC


191137Z 1912/2012 29005KT P6SM BKN040 BKN070
FM191500 32014G22KT P6SM BKN070 OVC100
FM191800 32015G25KT P6SM VCSH BKN070 OVC100
FM200100 32011KT P6SM SCT100
FM200600 30006KT P6SM SKC
KZFW FIR / North America



MET'MAP, your aeronautical weather chart ! - Copyright ORBIFLY December 2007 - Disclaimer

ORBIFLY MET'MAP TEAM :

Programming & Development : Alexandra Zaïnal
Concept & Development : Baudouin d'Aumeries
Co-Development & Prog : Marc-Olivier Méhu
Technical & hardware support : Manuel Goepfert

Contact : metmap@orbifly.com




SOURCES & CREDITS :

   NOAA       Earth
Advisory